sensor_id;sensor_type;location;lat;lon;timestamp;pressure;altitude;pressure_sealevel;temperature
41593;BMP180;28026;48.562;14.440;2024-02-04T00:01:30;94292.00;;;11.60
41593;BMP180;28026;48.562;14.440;2024-02-04T00:04:01;94287.00;;;11.60
41593;BMP180;28026;48.562;14.440;2024-02-04T00:06:32;94273.00;;;11.60
41593;BMP180;28026;48.562;14.440;2024-02-04T00:09:03;94272.00;;;11.70
41593;BMP180;28026;48.562;14.440;2024-02-04T00:11:35;94255.00;;;11.70
41593;BMP180;28026;48.562;14.440;2024-02-04T00:14:05;94263.00;;;11.70
41593;BMP180;28026;48.562;14.440;2024-02-04T00:16:36;94262.00;;;11.70
41593;BMP180;28026;48.562;14.440;2024-02-04T00:19:07;94253.00;;;11.80
41593;BMP180;28026;48.562;14.440;2024-02-04T00:21:39;94253.00;;;11.90
41593;BMP180;28026;48.562;14.440;2024-02-04T00:24:10;94274.00;;;11.90
41593;BMP180;28026;48.562;14.440;2024-02-04T00:26:40;94277.00;;;11.90
41593;BMP180;28026;48.562;14.440;2024-02-04T00:29:11;94268.00;;;11.90
41593;BMP180;28026;48.562;14.440;2024-02-04T00:31:42;94258.00;;;11.90
41593;BMP180;28026;48.562;14.440;2024-02-04T00:34:13;94254.00;;;11.90
41593;BMP180;28026;48.562;14.440;2024-02-04T00:36:44;94253.00;;;11.90
41593;BMP180;28026;48.562;14.440;2024-02-04T00:39:15;94257.00;;;11.80
41593;BMP180;28026;48.562;14.440;2024-02-04T00:41:46;94258.00;;;11.80
41593;BMP180;28026;48.562;14.440;2024-02-04T00:44:16;94260.00;;;11.90
41593;BMP180;28026;48.562;14.440;2024-02-04T00:46:47;94248.00;;;11.80
41593;BMP180;28026;48.562;14.440;2024-02-04T00:49:18;94256.00;;;11.80
41593;BMP180;28026;48.562;14.440;2024-02-04T00:51:49;94270.00;;;11.80
41593;BMP180;28026;48.562;14.440;2024-02-04T00:54:20;94278.00;;;11.80
41593;BMP180;28026;48.562;14.440;2024-02-04T00:56:51;94287.00;;;11.80
41593;BMP180;28026;48.562;14.440;2024-02-04T00:59:22;94286.00;;;11.80
41593;BMP180;28026;48.562;14.440;2024-02-04T01:01:53;94306.00;;;11.90
41593;BMP180;28026;48.562;14.440;2024-02-04T01:04:24;94303.00;;;11.90
41593;BMP180;28026;48.562;14.440;2024-02-04T01:06:54;94289.00;;;11.90
41593;BMP180;28026;48.562;14.440;2024-02-04T01:09:25;94273.00;;;11.90
41593;BMP180;28026;48.562;14.440;2024-02-04T01:11:57;94277.00;;;12.00
41593;BMP180;28026;48.562;14.440;2024-02-04T01:14:28;94276.00;;;12.00
41593;BMP180;28026;48.562;14.440;2024-02-04T01:16:58;94297.00;;;11.90
41593;BMP180;28026;48.562;14.440;2024-02-04T01:19:29;94286.00;;;11.90
41593;BMP180;28026;48.562;14.440;2024-02-04T01:22:00;94270.00;;;11.90
41593;BMP180;28026;48.562;14.440;2024-02-04T01:24:31;94259.00;;;11.90
41593;BMP180;28026;48.562;14.440;2024-02-04T01:27:03;94255.00;;;11.90
41593;BMP180;28026;48.562;14.440;2024-02-04T01:29:34;94249.00;;;11.90
41593;BMP180;28026;48.562;14.440;2024-02-04T01:32:05;94244.00;;;11.90
41593;BMP180;28026;48.562;14.440;2024-02-04T01:34:36;94235.00;;;11.90
41593;BMP180;28026;48.562;14.440;2024-02-04T01:37:07;94253.00;;;11.90
41593;BMP180;28026;48.562;14.440;2024-02-04T01:39:38;94252.00;;;11.90
41593;BMP180;28026;48.562;14.440;2024-02-04T01:42:09;94246.00;;;11.90
41593;BMP180;28026;48.562;14.440;2024-02-04T01:44:40;94230.00;;;11.90
41593;BMP180;28026;48.562;14.440;2024-02-04T01:47:12;94244.00;;;11.90
41593;BMP180;28026;48.562;14.440;2024-02-04T01:49:44;94237.00;;;11.80
41593;BMP180;28026;48.562;14.440;2024-02-04T01:52:16;94253.00;;;11.80
41593;BMP180;28026;48.562;14.440;2024-02-04T01:54:48;94260.00;;;11.80
41593;BMP180;28026;48.562;14.440;2024-02-04T01:57:21;94264.00;;;11.80
41593;BMP180;28026;48.562;14.440;2024-02-04T01:59:56;94258.00;;;11.80
41593;BMP180;28026;48.562;14.440;2024-02-04T02:02:28;94243.00;;;11.80
41593;BMP180;28026;48.562;14.440;2024-02-04T02:04:59;94248.00;;;11.80
41593;BMP180;28026;48.562;14.440;2024-02-04T02:07:31;94252.00;;;11.70
41593;BMP180;28026;48.562;14.440;2024-02-04T02:10:01;94251.00;;;11.80
41593;BMP180;28026;48.562;14.440;2024-02-04T02:12:50;94243.00;;;11.80
41593;BMP180;28026;48.562;14.440;2024-02-04T02:15:35;94249.00;;;11.80
41593;BMP180;28026;48.562;14.440;2024-02-04T02:18:27;94237.00;;;11.80
41593;BMP180;28026;48.562;14.440;2024-02-04T02:21:25;94225.00;;;11.80
41593;BMP180;28026;48.562;14.440;2024-02-04T02:24:26;94234.00;;;11.80
41593;BMP180;28026;48.562;14.440;2024-02-04T02:27:00;94221.00;;;11.80
41593;BMP180;28026;48.562;14.440;2024-02-04T02:29:32;94240.00;;;11.80
41593;BMP180;28026;48.562;14.440;2024-02-04T02:32:03;94249.00;;;11.90
41593;BMP180;28026;48.562;14.440;2024-02-04T02:34:35;94253.00;;;11.90
41593;BMP180;28026;48.562;14.440;2024-02-04T02:40:22;94258.00;;;11.80
41593;BMP180;28026;48.562;14.440;2024-02-04T02:43:01;94258.00;;;11.80
41593;BMP180;28026;48.562;14.440;2024-02-04T02:45:34;94258.00;;;11.80
41593;BMP180;28026;48.562;14.440;2024-02-04T02:48:07;94241.00;;;11.80
41593;BMP180;28026;48.562;14.440;2024-02-04T02:50:39;94252.00;;;11.80
41593;BMP180;28026;48.562;14.440;2024-02-04T02:53:10;94251.00;;;11.80
41593;BMP180;28026;48.562;14.440;2024-02-04T02:55:41;94254.00;;;11.80
41593;BMP180;28026;48.562;14.440;2024-02-04T02:58:13;94249.00;;;11.80
41593;BMP180;28026;48.562;14.440;2024-02-04T03:00:44;94234.00;;;11.80
41593;BMP180;28026;48.562;14.440;2024-02-04T03:03:16;94247.00;;;11.80
41593;BMP180;28026;48.562;14.440;2024-02-04T03:05:47;94240.00;;;11.80
41593;BMP180;28026;48.562;14.440;2024-02-04T03:08:18;94254.00;;;11.90
41593;BMP180;28026;48.562;14.440;2024-02-04T03:10:49;94242.00;;;11.90
41593;BMP180;28026;48.562;14.440;2024-02-04T03:13:20;94240.00;;;11.90
41593;BMP180;28026;48.562;14.440;2024-02-04T03:15:50;94251.00;;;11.90
41593;BMP180;28026;48.562;14.440;2024-02-04T03:18:21;94222.00;;;11.90
41593;BMP180;28026;48.562;14.440;2024-02-04T03:20:52;94221.00;;;11.90
41593;BMP180;28026;48.562;14.440;2024-02-04T03:23:23;94222.00;;;11.90
41593;BMP180;28026;48.562;14.440;2024-02-04T03:25:54;94218.00;;;11.90
41593;BMP180;28026;48.562;14.440;2024-02-04T03:28:25;94220.00;;;11.90
41593;BMP180;28026;48.562;14.440;2024-02-04T03:30:56;94207.00;;;11.90
41593;BMP180;28026;48.562;14.440;2024-02-04T03:33:27;94214.00;;;11.90
41593;BMP180;28026;48.562;14.440;2024-02-04T03:35:58;94214.00;;;11.90
41593;BMP180;28026;48.562;14.440;2024-02-04T03:38:29;94228.00;;;11.90
41593;BMP180;28026;48.562;14.440;2024-02-04T03:40:59;94232.00;;;11.90
41593;BMP180;28026;48.562;14.440;2024-02-04T03:43:30;94233.00;;;11.90
41593;BMP180;28026;48.562;14.440;2024-02-04T03:46:01;94216.00;;;11.90
41593;BMP180;28026;48.562;14.440;2024-02-04T03:48:32;94225.00;;;12.00
41593;BMP180;28026;48.562;14.440;2024-02-04T03:51:04;94232.00;;;12.00
41593;BMP180;28026;48.562;14.440;2024-02-04T03:53:35;94244.00;;;11.90
41593;BMP180;28026;48.562;14.440;2024-02-04T03:56:06;94219.00;;;12.00
41593;BMP180;28026;48.562;14.440;2024-02-04T03:58:37;94232.00;;;12.00
41593;BMP180;28026;48.562;14.440;2024-02-04T04:01:12;94246.00;;;12.00
41593;BMP180;28026;48.562;14.440;2024-02-04T04:03:43;94253.00;;;12.00
41593;BMP180;28026;48.562;14.440;2024-02-04T04:06:14;94258.00;;;12.00
41593;BMP180;28026;48.562;14.440;2024-02-04T04:08:45;94256.00;;;12.00
41593;BMP180;28026;48.562;14.440;2024-02-04T04:11:16;94254.00;;;12.00
41593;BMP180;28026;48.562;14.440;2024-02-04T04:13:48;94260.00;;;12.00
41593;BMP180;28026;48.562;14.440;2024-02-04T04:16:22;94263.00;;;11.90
41593;BMP180;28026;48.562;14.440;2024-02-04T04:18:53;94263.00;;;12.00
41593;BMP180;28026;48.562;14.440;2024-02-04T04:21:24;94257.00;;;12.00
41593;BMP180;28026;48.562;14.440;2024-02-04T04:23:55;94268.00;;;12.00
41593;BMP180;28026;48.562;14.440;2024-02-04T04:26:26;94275.00;;;12.00
41593;BMP180;28026;48.562;14.440;2024-02-04T04:28:57;94271.00;;;12.10
41593;BMP180;28026;48.562;14.440;2024-02-04T04:31:28;94280.00;;;12.10
41593;BMP180;28026;48.562;14.440;2024-02-04T04:33:59;94273.00;;;12.20
41593;BMP180;28026;48.562;14.440;2024-02-04T04:36:30;94276.00;;;12.20
41593;BMP180;28026;48.562;14.440;2024-02-04T04:39:01;94287.00;;;12.20
41593;BMP180;28026;48.562;14.440;2024-02-04T04:41:32;94278.00;;;12.20
41593;BMP180;28026;48.562;14.440;2024-02-04T04:44:03;94270.00;;;12.20
41593;BMP180;28026;48.562;14.440;2024-02-04T04:46:38;94283.00;;;12.20
41593;BMP180;28026;48.562;14.440;2024-02-04T04:49:10;94272.00;;;12.20
41593;BMP180;28026;48.562;14.440;2024-02-04T04:51:45;94277.00;;;12.20
41593;BMP180;28026;48.562;14.440;2024-02-04T04:54:19;94282.00;;;12.20
41593;BMP180;28026;48.562;14.440;2024-02-04T04:56:49;94277.00;;;12.30
41593;BMP180;28026;48.562;14.440;2024-02-04T04:59:20;94276.00;;;12.30
41593;BMP180;28026;48.562;14.440;2024-02-04T05:01:51;94266.00;;;12.20
41593;BMP180;28026;48.562;14.440;2024-02-04T05:04:22;94275.00;;;12.20
41593;BMP180;28026;48.562;14.440;2024-02-04T05:06:55;94273.00;;;12.20
41593;BMP180;28026;48.562;14.440;2024-02-04T05:09:27;94267.00;;;12.20
41593;BMP180;28026;48.562;14.440;2024-02-04T05:11:58;94262.00;;;12.20
41593;BMP180;28026;48.562;14.440;2024-02-04T05:14:29;94249.00;;;12.10
41593;BMP180;28026;48.562;14.440;2024-02-04T05:17:00;94248.00;;;12.10
41593;BMP180;28026;48.562;14.440;2024-02-04T05:19:31;94249.00;;;12.10
41593;BMP180;28026;48.562;14.440;2024-02-04T05:22:02;94247.00;;;12.10
41593;BMP180;28026;48.562;14.440;2024-02-04T05:24:33;94249.00;;;12.00
41593;BMP180;28026;48.562;14.440;2024-02-04T05:27:04;94241.00;;;12.00
41593;BMP180;28026;48.562;14.440;2024-02-04T05:29:35;94245.00;;;12.00
41593;BMP180;28026;48.562;14.440;2024-02-04T05:32:06;94251.00;;;12.00
41593;BMP180;28026;48.562;14.440;2024-02-04T05:34:38;94253.00;;;12.00
41593;BMP180;28026;48.562;14.440;2024-02-04T05:37:09;94257.00;;;11.90
41593;BMP180;28026;48.562;14.440;2024-02-04T05:39:39;94261.00;;;11.90
41593;BMP180;28026;48.562;14.440;2024-02-04T05:42:10;94260.00;;;11.90
41593;BMP180;28026;48.562;14.440;2024-02-04T05:44:41;94259.00;;;11.90
41593;BMP180;28026;48.562;14.440;2024-02-04T05:47:12;94266.00;;;12.00
41593;BMP180;28026;48.562;14.440;2024-02-04T05:49:44;94268.00;;;12.00
41593;BMP180;28026;48.562;14.440;2024-02-04T05:52:15;94270.00;;;12.00
41593;BMP180;28026;48.562;14.440;2024-02-04T05:54:46;94262.00;;;12.00
41593;BMP180;28026;48.562;14.440;2024-02-04T05:57:17;94261.00;;;12.00
41593;BMP180;28026;48.562;14.440;2024-02-04T05:59:48;94263.00;;;12.00
41593;BMP180;28026;48.562;14.440;2024-02-04T06:02:18;94251.00;;;12.00
41593;BMP180;28026;48.562;14.440;2024-02-04T06:04:49;94255.00;;;12.00
41593;BMP180;28026;48.562;14.440;2024-02-04T06:07:20;94246.00;;;12.00
41593;BMP180;28026;48.562;14.440;2024-02-04T06:09:51;94240.00;;;11.90
41593;BMP180;28026;48.562;14.440;2024-02-04T06:12:22;94241.00;;;11.90
41593;BMP180;28026;48.562;14.440;2024-02-04T06:14:53;94239.00;;;11.90
41593;BMP180;28026;48.562;14.440;2024-02-04T06:17:24;94227.00;;;11.90
41593;BMP180;28026;48.562;14.440;2024-02-04T06:19:55;94247.00;;;11.90
41593;BMP180;28026;48.562;14.440;2024-02-04T06:22:27;94256.00;;;11.90
41593;BMP180;28026;48.562;14.440;2024-02-04T06:24:58;94245.00;;;11.90
41593;BMP180;28026;48.562;14.440;2024-02-04T06:27:29;94255.00;;;11.90
41593;BMP180;28026;48.562;14.440;2024-02-04T06:30:00;94260.00;;;11.90
41593;BMP180;28026;48.562;14.440;2024-02-04T06:32:31;94249.00;;;12.00
41593;BMP180;28026;48.562;14.440;2024-02-04T06:35:02;94260.00;;;12.00
41593;BMP180;28026;48.562;14.440;2024-02-04T06:37:33;94256.00;;;12.00
41593;BMP180;28026;48.562;14.440;2024-02-04T06:40:05;94242.00;;;12.00
41593;BMP180;28026;48.562;14.440;2024-02-04T06:42:37;94249.00;;;12.00
41593;BMP180;28026;48.562;14.440;2024-02-04T06:45:08;94247.00;;;12.00
41593;BMP180;28026;48.562;14.440;2024-02-04T06:47:39;94248.00;;;12.00
41593;BMP180;28026;48.562;14.440;2024-02-04T06:50:14;94252.00;;;12.00
41593;BMP180;28026;48.562;14.440;2024-02-04T06:52:46;94246.00;;;12.00
41593;BMP180;28026;48.562;14.440;2024-02-04T06:55:17;94259.00;;;12.00
41593;BMP180;28026;48.562;14.440;2024-02-04T06:57:48;94247.00;;;12.00
41593;BMP180;28026;48.562;14.440;2024-02-04T07:00:19;94251.00;;;11.90
41593;BMP180;28026;48.562;14.440;2024-02-04T07:02:52;94251.00;;;11.90
41593;BMP180;28026;48.562;14.440;2024-02-04T07:05:23;94266.00;;;11.90
41593;BMP180;28026;48.562;14.440;2024-02-04T07:07:54;94266.00;;;11.90
41593;BMP180;28026;48.562;14.440;2024-02-04T07:10:24;94255.00;;;11.90
41593;BMP180;28026;48.562;14.440;2024-02-04T07:12:55;94255.00;;;11.90
41593;BMP180;28026;48.562;14.440;2024-02-04T07:15:26;94260.00;;;11.90
41593;BMP180;28026;48.562;14.440;2024-02-04T07:17:57;94263.00;;;11.90
41593;BMP180;28026;48.562;14.440;2024-02-04T07:20:28;94267.00;;;11.90
41593;BMP180;28026;48.562;14.440;2024-02-04T07:22:59;94257.00;;;11.80
41593;BMP180;28026;48.562;14.440;2024-02-04T07:25:30;94261.00;;;11.80
41593;BMP180;28026;48.562;14.440;2024-02-04T07:28:02;94263.00;;;11.80
41593;BMP180;28026;48.562;14.440;2024-02-04T07:30:33;94261.00;;;11.80
41593;BMP180;28026;48.562;14.440;2024-02-04T07:33:04;94258.00;;;11.80
41593;BMP180;28026;48.562;14.440;2024-02-04T07:35:35;94252.00;;;11.90
41593;BMP180;28026;48.562;14.440;2024-02-04T07:38:06;94258.00;;;11.90
41593;BMP180;28026;48.562;14.440;2024-02-04T07:40:37;94251.00;;;11.80
41593;BMP180;28026;48.562;14.440;2024-02-04T07:43:09;94258.00;;;11.80
41593;BMP180;28026;48.562;14.440;2024-02-04T07:45:40;94259.00;;;11.90
41593;BMP180;28026;48.562;14.440;2024-02-04T07:48:11;94269.00;;;11.90
41593;BMP180;28026;48.562;14.440;2024-02-04T07:50:42;94250.00;;;11.90
41593;BMP180;28026;48.562;14.440;2024-02-04T07:53:13;94269.00;;;11.80
41593;BMP180;28026;48.562;14.440;2024-02-04T07:55:44;94235.00;;;11.80
41593;BMP180;28026;48.562;14.440;2024-02-04T07:58:14;94239.00;;;11.90
41593;BMP180;28026;48.562;14.440;2024-02-04T08:00:45;94230.00;;;11.90
41593;BMP180;28026;48.562;14.440;2024-02-04T08:03:16;94243.00;;;11.90
41593;BMP180;28026;48.562;14.440;2024-02-04T08:05:47;94226.00;;;11.90
41593;BMP180;28026;48.562;14.440;2024-02-04T08:08:18;94233.00;;;12.00
41593;BMP180;28026;48.562;14.440;2024-02-04T08:10:49;94247.00;;;12.00
41593;BMP180;28026;48.562;14.440;2024-02-04T08:13:20;94253.00;;;12.00
41593;BMP180;28026;48.562;14.440;2024-02-04T08:15:51;94248.00;;;12.00
41593;BMP180;28026;48.562;14.440;2024-02-04T08:18:22;94248.00;;;12.00
41593;BMP180;28026;48.562;14.440;2024-02-04T08:20:52;94242.00;;;12.00
41593;BMP180;28026;48.562;14.440;2024-02-04T08:23:23;94246.00;;;12.00
41593;BMP180;28026;48.562;14.440;2024-02-04T08:25:54;94259.00;;;12.00
41593;BMP180;28026;48.562;14.440;2024-02-04T08:28:27;94255.00;;;12.00
41593;BMP180;28026;48.562;14.440;2024-02-04T08:30:58;94244.00;;;12.00
41593;BMP180;28026;48.562;14.440;2024-02-04T08:33:29;94247.00;;;12.00
41593;BMP180;28026;48.562;14.440;2024-02-04T08:36:00;94253.00;;;12.00
41593;BMP180;28026;48.562;14.440;2024-02-04T08:38:30;94254.00;;;12.00
41593;BMP180;28026;48.562;14.440;2024-02-04T08:41:02;94242.00;;;12.00
41593;BMP180;28026;48.562;14.440;2024-02-04T08:43:33;94248.00;;;12.00
41593;BMP180;28026;48.562;14.440;2024-02-04T08:46:05;94253.00;;;12.00
41593;BMP180;28026;48.562;14.440;2024-02-04T08:48:36;94238.00;;;12.10
41593;BMP180;28026;48.562;14.440;2024-02-04T08:51:11;94233.00;;;12.00
41593;BMP180;28026;48.562;14.440;2024-02-04T08:53:46;94236.00;;;12.10
41593;BMP180;28026;48.562;14.440;2024-02-04T08:56:17;94245.00;;;12.10
41593;BMP180;28026;48.562;14.440;2024-02-04T08:58:49;94235.00;;;12.10
41593;BMP180;28026;48.562;14.440;2024-02-04T09:01:19;94221.00;;;12.10
41593;BMP180;28026;48.562;14.440;2024-02-04T09:03:50;94223.00;;;12.10
41593;BMP180;28026;48.562;14.440;2024-02-04T09:06:21;94219.00;;;12.10
41593;BMP180;28026;48.562;14.440;2024-02-04T09:08:52;94209.00;;;12.10
41593;BMP180;28026;48.562;14.440;2024-02-04T09:11:23;94201.00;;;12.20
41593;BMP180;28026;48.562;14.440;2024-02-04T09:13:55;94209.00;;;12.20
41593;BMP180;28026;48.562;14.440;2024-02-04T09:16:25;94217.00;;;12.30
41593;BMP180;28026;48.562;14.440;2024-02-04T09:18:57;94214.00;;;12.20
41593;BMP180;28026;48.562;14.440;2024-02-04T09:21:27;94200.00;;;12.30
41593;BMP180;28026;48.562;14.440;2024-02-04T09:23:58;94202.00;;;12.30
41593;BMP180;28026;48.562;14.440;2024-02-04T09:26:29;94200.00;;;12.40
41593;BMP180;28026;48.562;14.440;2024-02-04T09:29:00;94203.00;;;12.30
41593;BMP180;28026;48.562;14.440;2024-02-04T09:31:31;94213.00;;;12.30
41593;BMP180;28026;48.562;14.440;2024-02-04T09:34:02;94208.00;;;12.30
41593;BMP180;28026;48.562;14.440;2024-02-04T09:36:33;94213.00;;;12.30
41593;BMP180;28026;48.562;14.440;2024-02-04T09:39:03;94216.00;;;12.30
41593;BMP180;28026;48.562;14.440;2024-02-04T09:41:34;94224.00;;;12.30
41593;BMP180;28026;48.562;14.440;2024-02-04T09:44:07;94208.00;;;12.30
41593;BMP180;28026;48.562;14.440;2024-02-04T09:46:38;94214.00;;;12.30
41593;BMP180;28026;48.562;14.440;2024-02-04T09:49:11;94222.00;;;12.30
41593;BMP180;28026;48.562;14.440;2024-02-04T09:51:44;94207.00;;;12.30
41593;BMP180;28026;48.562;14.440;2024-02-04T09:54:18;94226.00;;;12.30
41593;BMP180;28026;48.562;14.440;2024-02-04T09:56:52;94243.00;;;12.30
41593;BMP180;28026;48.562;14.440;2024-02-04T09:59:23;94237.00;;;12.30
41593;BMP180;28026;48.562;14.440;2024-02-04T10:01:56;94234.00;;;12.30
41593;BMP180;28026;48.562;14.440;2024-02-04T10:04:27;94233.00;;;12.30
41593;BMP180;28026;48.562;14.440;2024-02-04T10:06:58;94206.00;;;12.30
41593;BMP180;28026;48.562;14.440;2024-02-04T10:09:30;94204.00;;;12.30
41593;BMP180;28026;48.562;14.440;2024-02-04T10:12:01;94222.00;;;12.40
41593;BMP180;28026;48.562;14.440;2024-02-04T10:14:32;94216.00;;;12.40
41593;BMP180;28026;48.562;14.440;2024-02-04T10:17:04;94204.00;;;12.40
41593;BMP180;28026;48.562;14.440;2024-02-04T10:19:35;94211.00;;;12.40
41593;BMP180;28026;48.562;14.440;2024-02-04T10:22:06;94211.00;;;12.40
41593;BMP180;28026;48.562;14.440;2024-02-04T10:24:36;94208.00;;;12.40
41593;BMP180;28026;48.562;14.440;2024-02-04T10:27:10;94208.00;;;12.30
41593;BMP180;28026;48.562;14.440;2024-02-04T10:29:41;94222.00;;;12.30
41593;BMP180;28026;48.562;14.440;2024-02-04T10:32:12;94197.00;;;12.30
41593;BMP180;28026;48.562;14.440;2024-02-04T10:34:43;94178.00;;;12.30
41593;BMP180;28026;48.562;14.440;2024-02-04T10:37:14;94201.00;;;12.20
41593;BMP180;28026;48.562;14.440;2024-02-04T10:39:45;94218.00;;;12.20
41593;BMP180;28026;48.562;14.440;2024-02-04T10:42:24;94215.00;;;12.20
41593;BMP180;28026;48.562;14.440;2024-02-04T10:44:58;94200.00;;;12.20
41593;BMP180;28026;48.562;14.440;2024-02-04T10:47:32;94204.00;;;12.20
41593;BMP180;28026;48.562;14.440;2024-02-04T10:50:08;94215.00;;;12.20
41593;BMP180;28026;48.562;14.440;2024-02-04T10:52:46;94202.00;;;12.30
41593;BMP180;28026;48.562;14.440;2024-02-04T10:55:27;94193.00;;;12.30
41593;BMP180;28026;48.562;14.440;2024-02-04T10:58:02;94173.00;;;12.20
41593;BMP180;28026;48.562;14.440;2024-02-04T11:00:34;94185.00;;;12.20
41593;BMP180;28026;48.562;14.440;2024-02-04T11:03:06;94178.00;;;12.20
41593;BMP180;28026;48.562;14.440;2024-02-04T11:05:39;94182.00;;;12.20
41593;BMP180;28026;48.562;14.440;2024-02-04T11:08:13;94179.00;;;12.30
41593;BMP180;28026;48.562;14.440;2024-02-04T11:10:45;94177.00;;;12.30
41593;BMP180;28026;48.562;14.440;2024-02-04T11:13:16;94159.00;;;12.30
41593;BMP180;28026;48.562;14.440;2024-02-04T11:15:48;94155.00;;;12.30
41593;BMP180;28026;48.562;14.440;2024-02-04T11:18:56;94183.00;;;12.30
41593;BMP180;28026;48.562;14.440;2024-02-04T11:22:13;94165.00;;;12.30
41593;BMP180;28026;48.562;14.440;2024-02-04T11:28:16;94154.00;;;12.20
41593;BMP180;28026;48.562;14.440;2024-02-04T11:30:49;94147.00;;;12.20
41593;BMP180;28026;48.562;14.440;2024-02-04T11:33:22;94124.00;;;12.30
41593;BMP180;28026;48.562;14.440;2024-02-04T11:36:14;94143.00;;;12.40
41593;BMP180;28026;48.562;14.440;2024-02-04T11:38:48;94142.00;;;12.40
41593;BMP180;28026;48.562;14.440;2024-02-04T11:41:26;94137.00;;;12.40
41593;BMP180;28026;48.562;14.440;2024-02-04T11:43:57;94125.00;;;12.30
41593;BMP180;28026;48.562;14.440;2024-02-04T11:46:32;94121.00;;;12.30
41593;BMP180;28026;48.562;14.440;2024-02-04T11:49:15;94129.00;;;12.30
41593;BMP180;28026;48.562;14.440;2024-02-04T11:51:53;94138.00;;;12.30
41593;BMP180;28026;48.562;14.440;2024-02-04T11:54:26;94128.00;;;12.30
41593;BMP180;28026;48.562;14.440;2024-02-04T11:56:57;94131.00;;;12.30
41593;BMP180;28026;48.562;14.440;2024-02-04T11:59:30;94130.00;;;12.30
41593;BMP180;28026;48.562;14.440;2024-02-04T12:02:06;94129.00;;;12.40
41593;BMP180;28026;48.562;14.440;2024-02-04T12:04:37;94136.00;;;12.40
41593;BMP180;28026;48.562;14.440;2024-02-04T12:07:13;94131.00;;;12.40
41593;BMP180;28026;48.562;14.440;2024-02-04T12:09:44;94154.00;;;12.50
41593;BMP180;28026;48.562;14.440;2024-02-04T12:12:17;94170.00;;;12.50
41593;BMP180;28026;48.562;14.440;2024-02-04T12:14:49;94135.00;;;12.60
41593;BMP180;28026;48.562;14.440;2024-02-04T12:17:23;94136.00;;;12.60
41593;BMP180;28026;48.562;14.440;2024-02-04T12:19:54;94123.00;;;12.60
41593;BMP180;28026;48.562;14.440;2024-02-04T12:22:25;94096.00;;;12.60
41593;BMP180;28026;48.562;14.440;2024-02-04T12:24:56;94099.00;;;12.60
41593;BMP180;28026;48.562;14.440;2024-02-04T12:27:27;94098.00;;;12.70
41593;BMP180;28026;48.562;14.440;2024-02-04T12:29:59;94085.00;;;12.70
41593;BMP180;28026;48.562;14.440;2024-02-04T12:32:30;94080.00;;;12.70
41593;BMP180;28026;48.562;14.440;2024-02-04T12:35:01;94069.00;;;12.60
41593;BMP180;28026;48.562;14.440;2024-02-04T12:37:31;94061.00;;;12.60
41593;BMP180;28026;48.562;14.440;2024-02-04T12:40:05;94071.00;;;12.60
41593;BMP180;28026;48.562;14.440;2024-02-04T12:42:36;94079.00;;;12.70
41593;BMP180;28026;48.562;14.440;2024-02-04T12:45:08;94093.00;;;12.60
41593;BMP180;28026;48.562;14.440;2024-02-04T12:47:39;94094.00;;;12.70
41593;BMP180;28026;48.562;14.440;2024-02-04T12:50:11;94074.00;;;12.70
41593;BMP180;28026;48.562;14.440;2024-02-04T12:52:42;94069.00;;;12.70
41593;BMP180;28026;48.562;14.440;2024-02-04T12:55:26;94071.00;;;12.70
41593;BMP180;28026;48.562;14.440;2024-02-04T12:58:12;94067.00;;;12.80
41593;BMP180;28026;48.562;14.440;2024-02-04T13:00:45;94065.00;;;12.80
41593;BMP180;28026;48.562;14.440;2024-02-04T13:03:17;94051.00;;;12.80
41593;BMP180;28026;48.562;14.440;2024-02-04T13:05:47;94057.00;;;12.80
41593;BMP180;28026;48.562;14.440;2024-02-04T13:08:19;94056.00;;;12.80
41593;BMP180;28026;48.562;14.440;2024-02-04T13:10:57;94033.00;;;12.80
41593;BMP180;28026;48.562;14.440;2024-02-04T13:13:28;94037.00;;;12.70
41593;BMP180;28026;48.562;14.440;2024-02-04T13:15:59;94022.00;;;12.70
41593;BMP180;28026;48.562;14.440;2024-02-04T13:18:30;94036.00;;;12.80
41593;BMP180;28026;48.562;14.440;2024-02-04T13:21:00;94041.00;;;12.70
41593;BMP180;28026;48.562;14.440;2024-02-04T13:23:31;94042.00;;;12.70
41593;BMP180;28026;48.562;14.440;2024-02-04T13:26:05;94049.00;;;12.70
41593;BMP180;28026;48.562;14.440;2024-02-04T13:28:38;94031.00;;;12.70
41593;BMP180;28026;48.562;14.440;2024-02-04T13:31:09;94059.00;;;12.80
41593;BMP180;28026;48.562;14.440;2024-02-04T13:33:40;94042.00;;;12.70
41593;BMP180;28026;48.562;14.440;2024-02-04T13:36:12;94047.00;;;12.80
41593;BMP180;28026;48.562;14.440;2024-02-04T13:38:42;94037.00;;;12.80
41593;BMP180;28026;48.562;14.440;2024-02-04T13:41:13;94045.00;;;12.90
41593;BMP180;28026;48.562;14.440;2024-02-04T13:43:44;94034.00;;;12.90
41593;BMP180;28026;48.562;14.440;2024-02-04T13:46:15;94032.00;;;12.90
41593;BMP180;28026;48.562;14.440;2024-02-04T13:48:46;94030.00;;;12.90
41593;BMP180;28026;48.562;14.440;2024-02-04T13:51:17;94027.00;;;12.90
41593;BMP180;28026;48.562;14.440;2024-02-04T13:53:47;94022.00;;;12.90
41593;BMP180;28026;48.562;14.440;2024-02-04T13:56:18;94017.00;;;12.90
41593;BMP180;28026;48.562;14.440;2024-02-04T13:58:50;94013.00;;;12.90
41593;BMP180;28026;48.562;14.440;2024-02-04T14:01:21;94022.00;;;12.90
41593;BMP180;28026;48.562;14.440;2024-02-04T14:03:53;94010.00;;;12.90
41593;BMP180;28026;48.562;14.440;2024-02-04T14:06:24;94005.00;;;13.00
41593;BMP180;28026;48.562;14.440;2024-02-04T14:08:55;94011.00;;;13.00
41593;BMP180;28026;48.562;14.440;2024-02-04T14:11:25;94003.00;;;13.00
41593;BMP180;28026;48.562;14.440;2024-02-04T14:13:56;94006.00;;;13.00
41593;BMP180;28026;48.562;14.440;2024-02-04T14:16:27;94005.00;;;13.00
41593;BMP180;28026;48.562;14.440;2024-02-04T14:18:58;94010.00;;;13.00
41593;BMP180;28026;48.562;14.440;2024-02-04T14:21:29;94017.00;;;13.00
41593;BMP180;28026;48.562;14.440;2024-02-04T14:24:00;94006.00;;;13.10
41593;BMP180;28026;48.562;14.440;2024-02-04T14:26:31;94005.00;;;13.10
41593;BMP180;28026;48.562;14.440;2024-02-04T14:29:02;94008.00;;;13.10
41593;BMP180;28026;48.562;14.440;2024-02-04T14:31:33;94006.00;;;13.20